Terminal Aerodrome Forecast
Issued by NWS Pittsburgh, PA

Current Version | Previous Version | Text Only | Print | Product List | Glossary Off
Versions: 1 2 3 4 5 6 7 8 9 10 11 12 13 14 15 16 17 18 19 20 21 22 23 24 25 26 27 28 29

000
FTUS41 KPBZ 181641 AAB
TAFPIT
TAF AMD
KPIT 181641Z 1817/1918 09012G18KT P6SM VCSH FEW030 SCT070 BKN100
     FM182300 12011KT P6SM BKN035 WS020/12035KT
     FM190400 09010KT P6SM -RA OVC010 WS020/12035KT
     FM191700 16008KT P6SM VCTS BKN035CB=

USA.gov is the U.S. government's official web portal to all federal, state and local government web resources and services.